KHV345Z VDTI-WSSS
Flight info
| Callsign | KHV345Z |
|---|---|
| Flight time | 1h 33m |
| Altitude | 34000 |
| Route | KISAN1B KISAN M755 BITOD/K0869F330 M753 IPRIX/N0469F330 Q802 ELALO ELALO1B |
| Aircraft | A321/M-SDE3FGHIRWY/LB1 |
Departure
| Time | 2026-05-05 01:07 |
|---|---|
| Airport | Techo International Airport (VDTI) |
Arrival
| Time | 2026-05-05 02:41 |
|---|---|
| Airport | Singapore Changi Airport (WSSS) |
| Time | Latitude | Longitude | Altitude | Speed | Heading |
|---|---|---|---|---|---|
| 2026-05-05 00:38 | 11.36124 | 104.93173 | 31 ft | 0 kts | 108° |
| 2026-05-05 00:48 | 11.36124 | 104.93172 | 28 ft | 0 kts | 108° |
| 2026-05-05 00:55 | 11.36131 | 104.93150 | 31 ft | 3 kts | 108° |
| 2026-05-05 00:55 | 11.36138 | 104.93130 | 31 ft | 4 kts | 115° |
| 2026-05-05 00:55 | 11.36152 | 104.93107 | 31 ft | 4 kts | 139° |
| 2026-05-05 00:56 | 11.36174 | 104.93096 | 29 ft | 3 kts | 185° |
| 2026-05-05 00:56 | 11.36179 | 104.93097 | 29 ft | 0 kts | 190° |
| 2026-05-05 00:58 | 11.36178 | 104.93097 | 29 ft | 0 kts | 190° |
| 2026-05-05 00:59 | 11.36158 | 104.93093 | 31 ft | 6 kts | 190° |
| 2026-05-05 00:59 | 11.36104 | 104.93080 | 32 ft | 11 kts | 200° |
| 2026-05-05 00:59 | 11.36040 | 104.93027 | 31 ft | 13 kts | 232° |
| 2026-05-05 00:59 | 11.36017 | 104.92941 | 31 ft | 13 kts | 264° |
| 2026-05-05 01:00 | 11.36007 | 104.92848 | 31 ft | 14 kts | 264° |
| 2026-05-05 01:00 | 11.36045 | 104.92765 | 31 ft | 14 kts | 315° |
| 2026-05-05 01:00 | 11.36100 | 104.92690 | 31 ft | 13 kts | 271° |
| 2026-05-05 01:00 | 11.36046 | 104.92613 | 31 ft | 14 kts | 227° |
| 2026-05-05 01:01 | 11.35970 | 104.92529 | 30 ft | 18 kts | 227° |
| 2026-05-05 01:01 | 11.35882 | 104.92433 | 31 ft | 19 kts | 227° |
| 2026-05-05 01:01 | 11.35793 | 104.92333 | 31 ft | 19 kts | 228° |
| 2026-05-05 01:01 | 11.35701 | 104.92232 | 31 ft | 20 kts | 227° |
| 2026-05-05 01:02 | 11.35608 | 104.92130 | 29 ft | 20 kts | 227° |
| 2026-05-05 01:02 | 11.35513 | 104.92024 | 30 ft | 20 kts | 227° |
| 2026-05-05 01:02 | 11.35415 | 104.91917 | 29 ft | 21 kts | 227° |
| 2026-05-05 01:02 | 11.35316 | 104.91808 | 29 ft | 21 kts | 227° |
| 2026-05-05 01:03 | 11.35215 | 104.91696 | 28 ft | 22 kts | 227° |
| 2026-05-05 01:03 | 11.35112 | 104.91583 | 28 ft | 22 kts | 227° |
| 2026-05-05 01:03 | 11.35007 | 104.91468 | 28 ft | 22 kts | 227° |
| 2026-05-05 01:03 | 11.34902 | 104.91351 | 29 ft | 22 kts | 227° |
| 2026-05-05 01:04 | 11.34796 | 104.91234 | 29 ft | 23 kts | 227° |
| 2026-05-05 01:04 | 11.34623 | 104.91043 | 29 ft | 12 kts | 227° |
| 2026-05-05 01:04 | 11.34584 | 104.90981 | 29 ft | 10 kts | 268° |
| 2026-05-05 01:05 | 11.34626 | 104.90927 | 29 ft | 10 kts | 321° |
| 2026-05-05 01:05 | 11.34680 | 104.90879 | 29 ft | 11 kts | 317° |
| 2026-05-05 01:05 | 11.34718 | 104.90844 | 29 ft | 6 kts | 317° |
| 2026-05-05 01:05 | 11.34752 | 104.90812 | 29 ft | 7 kts | 317° |
| 2026-05-05 01:06 | 11.34792 | 104.90801 | 29 ft | 6 kts | 15° |
| 2026-05-05 01:06 | 11.34823 | 104.90827 | 28 ft | 6 kts | 56° |
| 2026-05-05 01:06 | 11.34850 | 104.90858 | 30 ft | 6 kts | 47° |
| 2026-05-05 01:06 | 11.34964 | 104.90983 | 29 ft | 56 kts | 47° |
| 2026-05-05 01:07 | 11.35377 | 104.91439 | 28 ft | 119 kts | 47° |
| 2026-05-05 01:07 | 11.36059 | 104.92192 | 31 ft | 168 kts | 47° |
| 2026-05-05 01:07 | 11.36908 | 104.93138 | 364 ft | 183 kts | 46° |
| 2026-05-05 01:07 | 11.37772 | 104.94094 | 983 ft | 184 kts | 49° |
| 2026-05-05 01:08 | 11.38642 | 104.95054 | 1637 ft | 185 kts | 50° |
| 2026-05-05 01:08 | 11.39539 | 104.96042 | 1996 ft | 197 kts | 50° |
| 2026-05-05 01:08 | 11.40506 | 104.97114 | 2249 ft | 213 kts | 50° |
| 2026-05-05 01:08 | 11.41558 | 104.98276 | 2424 ft | 234 kts | 49° |
| 2026-05-05 01:09 | 11.42711 | 104.99529 | 2813 ft | 245 kts | 49° |
| 2026-05-05 01:09 | 11.43853 | 105.00825 | 3524 ft | 244 kts | 57° |
| 2026-05-05 01:09 | 11.44353 | 105.02435 | 4156 ft | 242 kts | 93° |
| 2026-05-05 01:09 | 11.43825 | 105.04073 | 4596 ft | 254 kts | 124° |
| 2026-05-05 01:10 | 11.42605 | 105.05448 | 4940 ft | 268 kts | 136° |
| 2026-05-05 01:10 | 11.41138 | 105.06649 | 5532 ft | 271 kts | 141° |
| 2026-05-05 01:10 | 11.39618 | 105.07779 | 6189 ft | 271 kts | 142° |
| 2026-05-05 01:10 | 11.38096 | 105.08958 | 6686 ft | 277 kts | 139° |
| 2026-05-05 01:11 | 11.36610 | 105.10219 | 7262 ft | 279 kts | 137° |
| 2026-05-05 01:11 | 11.35164 | 105.11509 | 7799 ft | 282 kts | 136° |
| 2026-05-05 01:11 | 11.33697 | 105.12853 | 7977 ft | 283 kts | 136° |
| 2026-05-05 01:11 | 11.32241 | 105.14204 | 8012 ft | 283 kts | 136° |
| 2026-05-05 01:12 | 11.30789 | 105.15549 | 8016 ft | 283 kts | 139° |
| 2026-05-05 01:12 | 11.29060 | 105.16491 | 8018 ft | 286 kts | 165° |
| 2026-05-05 01:12 | 11.27074 | 105.16473 | 8060 ft | 293 kts | 196° |
| 2026-05-05 01:12 | 11.25314 | 105.15427 | 8568 ft | 298 kts | 223° |
| 2026-05-05 01:13 | 11.23865 | 105.13899 | 9114 ft | 301 kts | 226° |
| 2026-05-05 01:13 | 11.22433 | 105.12329 | 9661 ft | 304 kts | 226° |
| 2026-05-05 01:13 | 11.20998 | 105.10737 | 10100 ft | 309 kts | 226° |
| 2026-05-05 01:13 | 11.19503 | 105.09073 | 10207 ft | 326 kts | 226° |
| 2026-05-05 01:14 | 11.17931 | 105.07329 | 10327 ft | 342 kts | 226° |
| 2026-05-05 01:14 | 11.16283 | 105.05510 | 10446 ft | 356 kts | 226° |
| 2026-05-05 01:14 | 11.14570 | 105.03619 | 10561 ft | 370 kts | 226° |
| 2026-05-05 01:14 | 11.12795 | 105.01660 | 10680 ft | 382 kts | 226° |
| 2026-05-05 01:15 | 11.10970 | 104.99649 | 10939 ft | 389 kts | 226° |
| 2026-05-05 01:15 | 11.09127 | 104.97622 | 11315 ft | 392 kts | 226° |
| 2026-05-05 01:15 | 11.07273 | 104.95581 | 11715 ft | 394 kts | 226° |
| 2026-05-05 01:15 | 11.05407 | 104.93528 | 12111 ft | 395 kts | 226° |
| 2026-05-05 01:16 | 11.04168 | 104.92166 | 12372 ft | 397 kts | 226° |
| 2026-05-05 01:16 | 11.02292 | 104.90100 | 12756 ft | 398 kts | 226° |
| 2026-05-05 01:16 | 11.00407 | 104.88021 | 13155 ft | 400 kts | 226° |
| 2026-05-05 01:16 | 10.98513 | 104.85935 | 13539 ft | 402 kts | 226° |
| 2026-05-05 01:17 | 10.96608 | 104.83840 | 13911 ft | 404 kts | 226° |
| 2026-05-05 01:17 | 10.94693 | 104.81738 | 14252 ft | 406 kts | 226° |
| 2026-05-05 01:17 | 10.92607 | 104.79785 | 14576 ft | 407 kts | 216° |
| 2026-05-05 01:17 | 10.90231 | 104.78226 | 14902 ft | 408 kts | 206° |
| 2026-05-05 01:18 | 10.86733 | 104.76841 | 15325 ft | 409 kts | 194° |
| 2026-05-05 01:18 | 10.84873 | 104.76322 | 15527 ft | 410 kts | 194° |
| 2026-05-05 01:18 | 10.82111 | 104.75544 | 15850 ft | 412 kts | 194° |
| 2026-05-05 01:18 | 10.79386 | 104.74768 | 16163 ft | 414 kts | 195° |
| 2026-05-05 01:19 | 10.76608 | 104.73977 | 16481 ft | 415 kts | 195° |
| 2026-05-05 01:19 | 10.73818 | 104.73179 | 16805 ft | 417 kts | 195° |
| 2026-05-05 01:19 | 10.70983 | 104.72366 | 17123 ft | 419 kts | 195° |
| 2026-05-05 01:19 | 10.68208 | 104.71573 | 17417 ft | 421 kts | 195° |
| 2026-05-05 01:20 | 10.65376 | 104.70768 | 17721 ft | 422 kts | 195° |
| 2026-05-05 01:20 | 10.62540 | 104.69962 | 18017 ft | 424 kts | 195° |
| 2026-05-05 01:20 | 10.59689 | 104.69151 | 18299 ft | 426 kts | 195° |
| 2026-05-05 01:20 | 10.56825 | 104.68336 | 18550 ft | 428 kts | 195° |
| 2026-05-05 01:21 | 10.53949 | 104.67536 | 18796 ft | 429 kts | 192° |
| 2026-05-05 01:21 | 10.51000 | 104.66975 | 19036 ft | 430 kts | 189° |
| 2026-05-05 01:21 | 10.48046 | 104.66448 | 19290 ft | 432 kts | 189° |
| 2026-05-05 01:21 | 10.45077 | 104.65918 | 19538 ft | 434 kts | 189° |
| 2026-05-05 01:22 | 10.42096 | 104.65385 | 19786 ft | 435 kts | 189° |
| 2026-05-05 01:22 | 10.39107 | 104.64853 | 20023 ft | 437 kts | 189° |
| 2026-05-05 01:22 | 10.36139 | 104.64323 | 20263 ft | 439 kts | 189° |
| 2026-05-05 01:22 | 10.33127 | 104.63781 | 20507 ft | 440 kts | 189° |
| 2026-05-05 01:23 | 10.30098 | 104.63233 | 20747 ft | 442 kts | 189° |
| 2026-05-05 01:23 | 10.27065 | 104.62683 | 20976 ft | 443 kts | 189° |
| 2026-05-05 01:23 | 10.24022 | 104.62136 | 21198 ft | 445 kts | 189° |
| 2026-05-05 01:23 | 10.20964 | 104.61586 | 21414 ft | 447 kts | 189° |
| 2026-05-05 01:24 | 10.17899 | 104.61036 | 21631 ft | 448 kts | 189° |
| 2026-05-05 01:24 | 10.14822 | 104.60486 | 21845 ft | 450 kts | 189° |
| 2026-05-05 01:24 | 10.11735 | 104.59933 | 22051 ft | 451 kts | 189° |
| 2026-05-05 01:24 | 10.08624 | 104.59374 | 22248 ft | 453 kts | 189° |
| 2026-05-05 01:25 | 10.05516 | 104.58817 | 22428 ft | 455 kts | 189° |
| 2026-05-05 01:25 | 10.02393 | 104.58272 | 22632 ft | 456 kts | 189° |
| 2026-05-05 01:25 | 9.99301 | 104.57747 | 22827 ft | 457 kts | 189° |
| 2026-05-05 01:25 | 9.96153 | 104.57223 | 23025 ft | 459 kts | 189° |
| 2026-05-05 01:26 | 9.92995 | 104.56699 | 23210 ft | 460 kts | 189° |
| 2026-05-05 01:26 | 9.89829 | 104.56170 | 23393 ft | 462 kts | 189° |
| 2026-05-05 01:26 | 9.86654 | 104.55635 | 23562 ft | 464 kts | 189° |
| 2026-05-05 01:26 | 9.83461 | 104.55094 | 23716 ft | 465 kts | 189° |
| 2026-05-05 01:27 | 9.80261 | 104.54551 | 23884 ft | 466 kts | 189° |
| 2026-05-05 01:27 | 9.77058 | 104.54008 | 24050 ft | 468 kts | 189° |
| 2026-05-05 01:27 | 9.73839 | 104.53468 | 24219 ft | 469 kts | 189° |
| 2026-05-05 01:27 | 9.70617 | 104.52929 | 24390 ft | 470 kts | 189° |
| 2026-05-05 01:28 | 9.67377 | 104.52384 | 24555 ft | 471 kts | 189° |
| 2026-05-05 01:28 | 9.64144 | 104.51835 | 24724 ft | 472 kts | 189° |
| 2026-05-05 01:28 | 9.60901 | 104.51284 | 24887 ft | 473 kts | 189° |
| 2026-05-05 01:28 | 9.57650 | 104.50732 | 25044 ft | 474 kts | 189° |
| 2026-05-05 01:29 | 9.54433 | 104.50183 | 25198 ft | 475 kts | 189° |
| 2026-05-05 01:29 | 9.51122 | 104.49620 | 25351 ft | 476 kts | 189° |
| 2026-05-05 01:29 | 9.47852 | 104.49070 | 25502 ft | 477 kts | 189° |
| 2026-05-05 01:29 | 9.44617 | 104.48531 | 25644 ft | 478 kts | 189° |
| 2026-05-05 01:30 | 9.41324 | 104.47982 | 25776 ft | 479 kts | 189° |
| 2026-05-05 01:30 | 9.38034 | 104.47430 | 25907 ft | 480 kts | 189° |
| 2026-05-05 01:30 | 9.34738 | 104.46876 | 26037 ft | 481 kts | 189° |
| 2026-05-05 01:30 | 9.31435 | 104.46317 | 26165 ft | 481 kts | 189° |
| 2026-05-05 01:31 | 9.28132 | 104.45757 | 26279 ft | 482 kts | 189° |
| 2026-05-05 01:31 | 9.24820 | 104.45195 | 26396 ft | 483 kts | 189° |
| 2026-05-05 01:31 | 9.21504 | 104.44636 | 26535 ft | 483 kts | 189° |
| 2026-05-05 01:31 | 9.18186 | 104.44078 | 26677 ft | 483 kts | 189° |
| 2026-05-05 01:32 | 9.14868 | 104.43519 | 26836 ft | 482 kts | 189° |
| 2026-05-05 01:32 | 9.11557 | 104.42963 | 26974 ft | 482 kts | 189° |
| 2026-05-05 01:32 | 9.08245 | 104.42407 | 27121 ft | 482 kts | 189° |
| 2026-05-05 01:32 | 9.04931 | 104.41850 | 27276 ft | 482 kts | 189° |
| 2026-05-05 01:33 | 9.01616 | 104.41294 | 27434 ft | 482 kts | 189° |
| 2026-05-05 01:33 | 8.98315 | 104.40740 | 27596 ft | 481 kts | 189° |
| 2026-05-05 01:33 | 8.95052 | 104.40192 | 27745 ft | 481 kts | 189° |
| 2026-05-05 01:33 | 8.91712 | 104.39631 | 27910 ft | 481 kts | 189° |
| 2026-05-05 01:34 | 8.88413 | 104.39076 | 28070 ft | 480 kts | 189° |
| 2026-05-05 01:34 | 8.85161 | 104.38528 | 28238 ft | 480 kts | 189° |
| 2026-05-05 01:34 | 8.81828 | 104.37966 | 28403 ft | 479 kts | 189° |
| 2026-05-05 01:34 | 8.78535 | 104.37412 | 28548 ft | 479 kts | 188° |
| 2026-05-05 01:35 | 8.75288 | 104.36868 | 28693 ft | 480 kts | 188° |
| 2026-05-05 01:35 | 8.71992 | 104.36316 | 28845 ft | 479 kts | 188° |
| 2026-05-05 01:35 | 8.68707 | 104.35767 | 29005 ft | 479 kts | 189° |
| 2026-05-05 01:35 | 8.65417 | 104.35217 | 29163 ft | 479 kts | 188° |
| 2026-05-05 01:36 | 8.62129 | 104.34668 | 29321 ft | 479 kts | 189° |
| 2026-05-05 01:36 | 8.58847 | 104.34116 | 29467 ft | 478 kts | 189° |
| 2026-05-05 01:36 | 8.55560 | 104.33563 | 29634 ft | 478 kts | 189° |
| 2026-05-05 01:36 | 8.52279 | 104.33012 | 29765 ft | 479 kts | 189° |
| 2026-05-05 01:37 | 8.48992 | 104.32462 | 29899 ft | 479 kts | 189° |
| 2026-05-05 01:37 | 8.45702 | 104.31911 | 30034 ft | 479 kts | 189° |
| 2026-05-05 01:37 | 8.42416 | 104.31359 | 30151 ft | 479 kts | 189° |
| 2026-05-05 01:37 | 8.39132 | 104.30806 | 30268 ft | 479 kts | 189° |
| 2026-05-05 01:38 | 8.35845 | 104.30253 | 30393 ft | 478 kts | 189° |
| 2026-05-05 01:38 | 8.32565 | 104.29705 | 30523 ft | 478 kts | 189° |
| 2026-05-05 01:38 | 8.29284 | 104.29160 | 30662 ft | 477 kts | 188° |
| 2026-05-05 01:38 | 8.26008 | 104.28612 | 30796 ft | 477 kts | 188° |
| 2026-05-05 01:39 | 8.22739 | 104.28064 | 30932 ft | 476 kts | 188° |
| 2026-05-05 01:39 | 8.19471 | 104.27518 | 31065 ft | 476 kts | 189° |
| 2026-05-05 01:39 | 8.16205 | 104.26969 | 31200 ft | 475 kts | 188° |
| 2026-05-05 01:39 | 8.12945 | 104.26422 | 31336 ft | 475 kts | 188° |
| 2026-05-05 01:40 | 8.09682 | 104.25875 | 31476 ft | 474 kts | 188° |
| 2026-05-05 01:40 | 8.06425 | 104.25332 | 31603 ft | 474 kts | 188° |
| 2026-05-05 01:40 | 8.03169 | 104.24788 | 31723 ft | 474 kts | 188° |
| 2026-05-05 01:40 | 7.99950 | 104.24249 | 31852 ft | 474 kts | 188° |
| 2026-05-05 01:41 | 7.96696 | 104.23703 | 31990 ft | 473 kts | 188° |
| 2026-05-05 01:41 | 7.93452 | 104.23158 | 32135 ft | 473 kts | 189° |
| 2026-05-05 01:41 | 7.90206 | 104.22613 | 32277 ft | 472 kts | 187° |
| 2026-05-05 01:41 | 7.86969 | 104.22070 | 32417 ft | 472 kts | 188° |
| 2026-05-05 01:42 | 7.83732 | 104.21527 | 32553 ft | 471 kts | 188° |
| 2026-05-05 01:42 | 7.80501 | 104.20988 | 32696 ft | 470 kts | 188° |
| 2026-05-05 01:42 | 7.77269 | 104.20451 | 32847 ft | 469 kts | 189° |
| 2026-05-05 01:42 | 7.74043 | 104.19912 | 32982 ft | 469 kts | 188° |
| 2026-05-05 01:43 | 7.70825 | 104.19376 | 33111 ft | 469 kts | 188° |
| 2026-05-05 01:43 | 7.67606 | 104.18842 | 33238 ft | 468 kts | 188° |
| 2026-05-05 01:43 | 7.64394 | 104.18308 | 33385 ft | 468 kts | 187° |
| 2026-05-05 01:43 | 7.61181 | 104.17770 | 33526 ft | 467 kts | 188° |
| 2026-05-05 01:44 | 7.57979 | 104.17233 | 33658 ft | 467 kts | 188° |
| 2026-05-05 01:44 | 7.54781 | 104.16695 | 33813 ft | 465 kts | 188° |
| 2026-05-05 01:44 | 7.48375 | 104.15624 | 33918 ft | 466 kts | 187° |
| 2026-05-05 01:45 | 7.41972 | 104.14552 | 33914 ft | 467 kts | 188° |
| 2026-05-05 01:45 | 7.35594 | 104.13486 | 33916 ft | 467 kts | 187° |
| 2026-05-05 01:46 | 7.29177 | 104.12419 | 33917 ft | 468 kts | 188° |
| 2026-05-05 01:46 | 7.22715 | 104.11989 | 33920 ft | 465 kts | 175° |
| 2026-05-05 01:47 | 7.16242 | 104.12345 | 33925 ft | 466 kts | 176° |
| 2026-05-05 01:47 | 7.09766 | 104.12671 | 33925 ft | 466 kts | 176° |
| 2026-05-05 01:48 | 7.03291 | 104.12991 | 33929 ft | 466 kts | 175° |
| 2026-05-05 01:48 | 6.96848 | 104.13668 | 33933 ft | 465 kts | 169° |
| 2026-05-05 01:49 | 6.90448 | 104.14717 | 33931 ft | 466 kts | 169° |
| 2026-05-05 01:49 | 6.84041 | 104.15756 | 33937 ft | 467 kts | 170° |
| 2026-05-05 01:50 | 6.77629 | 104.16791 | 33931 ft | 467 kts | 170° |
| 2026-05-05 01:50 | 6.71251 | 104.17818 | 33932 ft | 467 kts | 169° |
| 2026-05-05 01:51 | 6.64796 | 104.18860 | 33932 ft | 467 kts | 169° |
| 2026-05-05 01:51 | 6.58408 | 104.19892 | 33927 ft | 468 kts | 170° |
| 2026-05-05 01:52 | 6.51970 | 104.20929 | 33929 ft | 468 kts | 170° |
| 2026-05-05 01:52 | 6.45531 | 104.21962 | 33932 ft | 469 kts | 169° |
| 2026-05-05 01:53 | 6.39077 | 104.23006 | 33933 ft | 469 kts | 170° |
| 2026-05-05 01:53 | 6.32627 | 104.24056 | 33935 ft | 470 kts | 170° |
| 2026-05-05 01:54 | 6.26161 | 104.25105 | 33935 ft | 470 kts | 169° |
| 2026-05-05 01:54 | 6.19750 | 104.26142 | 33938 ft | 470 kts | 170° |
| 2026-05-05 01:55 | 6.13293 | 104.27179 | 33946 ft | 470 kts | 170° |
| 2026-05-05 01:55 | 6.06829 | 104.28214 | 33938 ft | 470 kts | 170° |
| 2026-05-05 01:56 | 6.00370 | 104.29255 | 33947 ft | 470 kts | 169° |
| 2026-05-05 01:56 | 5.93907 | 104.30303 | 33935 ft | 470 kts | 169° |
| 2026-05-05 01:57 | 5.87446 | 104.31347 | 33944 ft | 470 kts | 170° |
| 2026-05-05 01:57 | 5.80985 | 104.32387 | 33943 ft | 470 kts | 170° |
| 2026-05-05 01:58 | 5.74525 | 104.33423 | 33943 ft | 470 kts | 170° |
| 2026-05-05 01:58 | 5.68064 | 104.34459 | 33945 ft | 470 kts | 170° |
| 2026-05-05 01:59 | 5.61646 | 104.35490 | 33938 ft | 470 kts | 170° |
| 2026-05-05 01:59 | 5.55193 | 104.36530 | 33945 ft | 470 kts | 170° |
| 2026-05-05 02:00 | 5.48741 | 104.37565 | 33944 ft | 470 kts | 170° |
| 2026-05-05 02:00 | 5.42293 | 104.38609 | 33932 ft | 470 kts | 170° |
| 2026-05-05 02:01 | 5.36887 | 104.39483 | 33937 ft | 470 kts | 170° |
| 2026-05-05 02:01 | 5.29388 | 104.40686 | 33932 ft | 470 kts | 170° |
| 2026-05-05 02:02 | 5.24023 | 104.41541 | 33938 ft | 469 kts | 170° |
| 2026-05-05 02:02 | 5.17573 | 104.42572 | 33935 ft | 469 kts | 170° |
| 2026-05-05 02:03 | 5.11126 | 104.43613 | 33943 ft | 469 kts | 170° |
| 2026-05-05 02:03 | 5.04678 | 104.44649 | 33936 ft | 469 kts | 170° |
| 2026-05-05 02:04 | 4.98226 | 104.45688 | 33943 ft | 469 kts | 170° |
| 2026-05-05 02:04 | 4.91771 | 104.46726 | 33936 ft | 470 kts | 170° |
| 2026-05-05 02:05 | 4.85315 | 104.47750 | 33943 ft | 470 kts | 171° |
| 2026-05-05 02:05 | 4.78825 | 104.48604 | 33947 ft | 470 kts | 173° |
| 2026-05-05 02:06 | 4.72332 | 104.49360 | 33951 ft | 470 kts | 173° |
| 2026-05-05 02:06 | 4.65847 | 104.50143 | 33947 ft | 469 kts | 172° |
| 2026-05-05 02:07 | 4.59406 | 104.50958 | 33940 ft | 469 kts | 172° |
| 2026-05-05 02:07 | 4.52928 | 104.51788 | 33950 ft | 469 kts | 172° |
| 2026-05-05 02:08 | 4.46451 | 104.52607 | 33943 ft | 469 kts | 172° |
| 2026-05-05 02:08 | 4.39975 | 104.53424 | 33943 ft | 469 kts | 172° |
| 2026-05-05 02:09 | 4.33501 | 104.54245 | 33943 ft | 468 kts | 172° |
| 2026-05-05 02:09 | 4.27036 | 104.55065 | 33941 ft | 468 kts | 172° |
| 2026-05-05 02:10 | 4.20562 | 104.55876 | 33943 ft | 469 kts | 173° |
| 2026-05-05 02:10 | 4.14107 | 104.56568 | 33947 ft | 469 kts | 174° |
| 2026-05-05 02:11 | 4.07608 | 104.57154 | 33940 ft | 469 kts | 174° |
| 2026-05-05 02:11 | 4.01109 | 104.57746 | 33938 ft | 469 kts | 174° |
| 2026-05-05 02:12 | 3.91363 | 104.58706 | 33944 ft | 469 kts | 174° |
| 2026-05-05 02:13 | 3.84864 | 104.59353 | 33949 ft | 469 kts | 174° |
| 2026-05-05 02:13 | 3.78364 | 104.59999 | 33942 ft | 469 kts | 174° |
| 2026-05-05 02:14 | 3.71907 | 104.60626 | 33938 ft | 469 kts | 174° |
| 2026-05-05 02:14 | 3.65408 | 104.61258 | 33944 ft | 469 kts | 174° |
| 2026-05-05 02:15 | 3.58911 | 104.61902 | 33934 ft | 469 kts | 174° |
| 2026-05-05 02:15 | 3.52415 | 104.62541 | 33942 ft | 469 kts | 174° |
| 2026-05-05 02:16 | 3.45917 | 104.63172 | 33946 ft | 469 kts | 174° |
| 2026-05-05 02:16 | 3.39427 | 104.63809 | 33938 ft | 469 kts | 174° |
| 2026-05-05 02:17 | 3.32930 | 104.64446 | 33943 ft | 469 kts | 174° |
| 2026-05-05 02:17 | 3.26444 | 104.65080 | 33943 ft | 468 kts | 173° |
| 2026-05-05 02:18 | 3.19959 | 104.65720 | 33941 ft | 468 kts | 173° |
| 2026-05-05 02:18 | 3.13478 | 104.66359 | 33938 ft | 468 kts | 173° |
| 2026-05-05 02:19 | 3.06992 | 104.66192 | 33936 ft | 469 kts | 192° |
| 2026-05-05 02:19 | 3.00999 | 104.63663 | 33923 ft | 472 kts | 213° |
| 2026-05-05 02:19 | 2.98455 | 104.61595 | 33685 ft | 472 kts | 225° |
| 2026-05-05 02:20 | 2.96199 | 104.59190 | 33427 ft | 473 kts | 226° |
| 2026-05-05 02:20 | 2.93983 | 104.56805 | 33181 ft | 475 kts | 226° |
| 2026-05-05 02:20 | 2.91729 | 104.54387 | 32602 ft | 476 kts | 226° |
| 2026-05-05 02:20 | 2.89456 | 104.51959 | 31716 ft | 480 kts | 226° |
| 2026-05-05 02:21 | 2.87169 | 104.49521 | 30843 ft | 482 kts | 225° |
| 2026-05-05 02:21 | 2.84854 | 104.47054 | 29870 ft | 487 kts | 225° |
| 2026-05-05 02:21 | 2.82530 | 104.44578 | 28840 ft | 489 kts | 225° |
| 2026-05-05 02:21 | 2.80200 | 104.42090 | 27844 ft | 491 kts | 226° |
| 2026-05-05 02:22 | 2.77859 | 104.39587 | 26728 ft | 494 kts | 226° |
| 2026-05-05 02:22 | 2.75502 | 104.37068 | 25665 ft | 498 kts | 226° |
| 2026-05-05 02:22 | 2.73145 | 104.34548 | 24983 ft | 492 kts | 226° |
| 2026-05-05 02:22 | 2.70817 | 104.32059 | 24237 ft | 489 kts | 226° |
| 2026-05-05 02:23 | 2.68503 | 104.29584 | 23499 ft | 486 kts | 226° |
| 2026-05-05 02:23 | 2.66197 | 104.27118 | 22677 ft | 482 kts | 226° |
| 2026-05-05 02:23 | 2.63920 | 104.24683 | 21991 ft | 476 kts | 226° |
| 2026-05-05 02:23 | 2.61696 | 104.22304 | 21801 ft | 458 kts | 226° |
| 2026-05-05 02:24 | 2.59561 | 104.20024 | 21670 ft | 440 kts | 226° |
| 2026-05-05 02:24 | 2.57512 | 104.17833 | 21544 ft | 424 kts | 226° |
| 2026-05-05 02:24 | 2.55534 | 104.15716 | 21415 ft | 409 kts | 226° |
| 2026-05-05 02:24 | 2.53620 | 104.13684 | 21297 ft | 394 kts | 223° |
| 2026-05-05 02:25 | 2.51514 | 104.12036 | 21167 ft | 377 kts | 208° |
| 2026-05-05 02:25 | 2.49168 | 104.10980 | 20922 ft | 365 kts | 194° |
| 2026-05-05 02:25 | 2.46699 | 104.10520 | 20527 ft | 358 kts | 181° |
| 2026-05-05 02:25 | 2.44229 | 104.10504 | 20026 ft | 354 kts | 178° |
| 2026-05-05 02:26 | 2.41778 | 104.10513 | 19481 ft | 351 kts | 178° |
| 2026-05-05 02:26 | 2.39344 | 104.10515 | 18935 ft | 348 kts | 178° |
| 2026-05-05 02:26 | 2.36934 | 104.10513 | 18382 ft | 344 kts | 178° |
| 2026-05-05 02:26 | 2.34553 | 104.10508 | 17867 ft | 339 kts | 178° |
| 2026-05-05 02:27 | 2.32208 | 104.10503 | 17409 ft | 335 kts | 178° |
| 2026-05-05 02:27 | 2.29881 | 104.10500 | 16971 ft | 333 kts | 178° |
| 2026-05-05 02:27 | 2.27574 | 104.10499 | 16526 ft | 332 kts | 178° |
| 2026-05-05 02:27 | 2.25274 | 104.10500 | 16093 ft | 330 kts | 178° |
| 2026-05-05 02:28 | 2.22980 | 104.10499 | 15666 ft | 328 kts | 178° |
| 2026-05-05 02:28 | 2.20702 | 104.10497 | 15218 ft | 327 kts | 178° |
| 2026-05-05 02:28 | 2.18433 | 104.10497 | 14790 ft | 326 kts | 178° |
| 2026-05-05 02:28 | 2.16171 | 104.10495 | 14405 ft | 323 kts | 178° |
| 2026-05-05 02:29 | 2.13928 | 104.10493 | 13984 ft | 322 kts | 178° |
| 2026-05-05 02:29 | 2.11693 | 104.10491 | 13542 ft | 321 kts | 179° |
| 2026-05-05 02:29 | 2.09474 | 104.10491 | 13175 ft | 316 kts | 179° |
| 2026-05-05 02:29 | 2.07302 | 104.10494 | 12741 ft | 315 kts | 179° |
| 2026-05-05 02:30 | 2.05118 | 104.10499 | 12283 ft | 314 kts | 179° |
| 2026-05-05 02:30 | 2.02961 | 104.10501 | 12073 ft | 305 kts | 179° |
| 2026-05-05 02:30 | 2.00881 | 104.10501 | 11948 ft | 292 kts | 179° |
| 2026-05-05 02:30 | 1.98901 | 104.10500 | 11810 ft | 278 kts | 179° |
| 2026-05-05 02:31 | 1.96989 | 104.10501 | 11578 ft | 272 kts | 179° |
| 2026-05-05 02:31 | 1.95118 | 104.10508 | 11191 ft | 268 kts | 179° |
| 2026-05-05 02:31 | 1.93257 | 104.10516 | 10743 ft | 265 kts | 179° |
| 2026-05-05 02:31 | 1.91422 | 104.10522 | 10379 ft | 262 kts | 179° |
| 2026-05-05 02:32 | 1.89606 | 104.10530 | 10019 ft | 260 kts | 180° |
| 2026-05-05 02:32 | 1.87803 | 104.10540 | 9655 ft | 258 kts | 180° |
| 2026-05-05 02:32 | 1.86009 | 104.10549 | 9273 ft | 257 kts | 180° |
| 2026-05-05 02:32 | 1.84229 | 104.10558 | 8917 ft | 255 kts | 180° |
| 2026-05-05 02:33 | 1.82456 | 104.10568 | 8564 ft | 254 kts | 180° |
| 2026-05-05 02:33 | 1.80694 | 104.10579 | 8215 ft | 253 kts | 179° |
| 2026-05-05 02:33 | 1.78939 | 104.10590 | 7867 ft | 251 kts | 180° |
| 2026-05-05 02:33 | 1.77194 | 104.10598 | 7515 ft | 250 kts | 180° |
| 2026-05-05 02:34 | 1.75457 | 104.10604 | 7171 ft | 249 kts | 180° |
| 2026-05-05 02:34 | 1.73728 | 104.10610 | 6831 ft | 248 kts | 180° |
| 2026-05-05 02:34 | 1.72009 | 104.10617 | 6477 ft | 247 kts | 180° |
| 2026-05-05 02:34 | 1.70311 | 104.10623 | 6133 ft | 246 kts | 180° |
| 2026-05-05 02:35 | 1.68602 | 104.10630 | 5793 ft | 245 kts | 180° |
| 2026-05-05 02:35 | 1.66906 | 104.10639 | 5513 ft | 240 kts | 180° |
| 2026-05-05 02:35 | 1.65275 | 104.10519 | 5451 ft | 234 kts | 195° |
| 2026-05-05 02:35 | 1.63747 | 104.09959 | 5370 ft | 234 kts | 203° |
| 2026-05-05 02:36 | 1.62249 | 104.09306 | 5049 ft | 236 kts | 204° |
| 2026-05-05 02:36 | 1.60745 | 104.08661 | 4701 ft | 234 kts | 203° |
| 2026-05-05 02:36 | 1.59255 | 104.08031 | 4393 ft | 231 kts | 203° |
| 2026-05-05 02:36 | 1.57780 | 104.07409 | 4089 ft | 229 kts | 203° |
| 2026-05-05 02:37 | 1.56317 | 104.06791 | 3803 ft | 228 kts | 203° |
| 2026-05-05 02:37 | 1.54860 | 104.06176 | 3519 ft | 227 kts | 203° |
| 2026-05-05 02:37 | 1.53414 | 104.05565 | 3234 ft | 225 kts | 203° |
| 2026-05-05 02:37 | 1.51971 | 104.04955 | 2945 ft | 224 kts | 203° |
| 2026-05-05 02:38 | 1.50537 | 104.04350 | 2661 ft | 223 kts | 203° |
| 2026-05-05 02:38 | 1.49111 | 104.03748 | 2378 ft | 222 kts | 203° |
| 2026-05-05 02:38 | 1.47698 | 104.03151 | 2085 ft | 218 kts | 202° |
| 2026-05-05 02:38 | 1.46296 | 104.02559 | 1823 ft | 219 kts | 203° |
| 2026-05-05 02:39 | 1.44902 | 104.01970 | 1529 ft | 215 kts | 202° |
| 2026-05-05 02:39 | 1.43572 | 104.01408 | 1273 ft | 202 kts | 202° |
| 2026-05-05 02:39 | 1.42305 | 104.00874 | 1006 ft | 191 kts | 202° |
| 2026-05-05 02:39 | 1.41112 | 104.00370 | 780 ft | 180 kts | 203° |
| 2026-05-05 02:40 | 1.40018 | 103.99909 | 571 ft | 167 kts | 204° |
| 2026-05-05 02:40 | 1.38985 | 103.99473 | 358 ft | 157 kts | 204° |
| 2026-05-05 02:40 | 1.37996 | 103.99051 | 140 ft | 152 kts | 203° |
| 2026-05-05 02:40 | 1.37027 | 103.98642 | 36 ft | 147 kts | 203° |
| 2026-05-05 02:41 | 1.36207 | 103.98297 | 28 ft | 104 kts | 202° |
| 2026-05-05 02:41 | 1.35699 | 103.98082 | 29 ft | 55 kts | 203° |
| 2026-05-05 02:41 | 1.35431 | 103.97967 | 31 ft | 39 kts | 202° |
| 2026-05-05 02:41 | 1.35191 | 103.97868 | 31 ft | 33 kts | 203° |
| 2026-05-05 02:42 | 1.35024 | 103.97807 | 30 ft | 23 kts | 197° |
| 2026-05-05 02:42 | 1.34911 | 103.97781 | 30 ft | 11 kts | 180° |
| 2026-05-05 02:42 | 1.34869 | 103.97836 | 28 ft | 12 kts | 108° |
| 2026-05-05 02:42 | 1.34836 | 103.97924 | 30 ft | 15 kts | 114° |
| 2026-05-05 02:43 | 1.34792 | 103.98024 | 27 ft | 16 kts | 114° |
| 2026-05-05 02:43 | 1.34746 | 103.98133 | 25 ft | 18 kts | 112° |
| 2026-05-05 02:43 | 1.34701 | 103.98241 | 31 ft | 14 kts | 112° |
| 2026-05-05 02:43 | 1.34673 | 103.98309 | 40 ft | 8 kts | 113° |
| 2026-05-05 02:44 | 1.34649 | 103.98364 | 43 ft | 12 kts | 114° |
| 2026-05-05 02:44 | 1.34612 | 103.98452 | 43 ft | 15 kts | 111° |
| 2026-05-05 02:44 | 1.34560 | 103.98575 | 27 ft | 24 kts | 113° |
| 2026-05-05 02:44 | 1.34490 | 103.98734 | 25 ft | 24 kts | 113° |
| 2026-05-05 02:45 | 1.34441 | 103.98839 | 26 ft | 11 kts | 136° |
| 2026-05-05 02:45 | 1.34366 | 103.98831 | 27 ft | 14 kts | 203° |
| 2026-05-05 02:45 | 1.34270 | 103.98790 | 26 ft | 16 kts | 203° |
| 2026-05-05 02:45 | 1.34166 | 103.98748 | 27 ft | 17 kts | 201° |
| 2026-05-05 02:46 | 1.34079 | 103.98704 | 26 ft | 10 kts | 235° |
| 2026-05-05 02:46 | 1.34067 | 103.98644 | 27 ft | 8 kts | 225° |
| 2026-05-05 02:46 | 1.34010 | 103.98617 | 27 ft | 10 kts | 202° |
| 2026-05-05 02:46 | 1.33965 | 103.98599 | 26 ft | 10 kts | 203° |
| 2026-05-05 02:47 | 1.33942 | 103.98573 | 25 ft | 5 kts | 263° |
| 2026-05-05 02:47 | 1.33948 | 103.98548 | 25 ft | 1 kts | 289° |
| 2026-05-05 02:47 | 1.33950 | 103.98544 | 27 ft | 0 kts | 289° |